sensor_id;sensor_type;location;lat;lon;timestamp;temperature;humidity
20155;DHT22;10238;49.556;10.956;2023-02-01T00:02:34;3.80;99.90
20155;DHT22;10238;49.556;10.956;2023-02-01T00:05:22;3.80;99.90
20155;DHT22;10238;49.556;10.956;2023-02-01T00:08:09;3.80;99.90
20155;DHT22;10238;49.556;10.956;2023-02-01T00:10:58;3.80;99.90
20155;DHT22;10238;49.556;10.956;2023-02-01T00:13:49;3.70;99.90
20155;DHT22;10238;49.556;10.956;2023-02-01T00:16:37;3.80;99.90
20155;DHT22;10238;49.556;10.956;2023-02-01T00:19:25;3.80;99.90
20155;DHT22;10238;49.556;10.956;2023-02-01T00:22:13;3.80;99.90
20155;DHT22;10238;49.556;10.956;2023-02-01T00:25:00;3.70;99.90
20155;DHT22;10238;49.556;10.956;2023-02-01T00:27:49;3.90;99.90
20155;DHT22;10238;49.556;10.956;2023-02-01T00:30:38;3.70;99.90
20155;DHT22;10238;49.556;10.956;2023-02-01T00:33:26;3.80;99.90
20155;DHT22;10238;49.556;10.956;2023-02-01T00:36:15;3.80;99.90
20155;DHT22;10238;49.556;10.956;2023-02-01T00:39:04;4.00;99.90
20155;DHT22;10238;49.556;10.956;2023-02-01T00:41:51;3.80;99.90
20155;DHT22;10238;49.556;10.956;2023-02-01T00:44:41;3.80;99.90
20155;DHT22;10238;49.556;10.956;2023-02-01T00:47:29;3.80;99.90
20155;DHT22;10238;49.556;10.956;2023-02-01T00:50:17;3.80;99.90
20155;DHT22;10238;49.556;10.956;2023-02-01T00:53:05;3.70;99.90
20155;DHT22;10238;49.556;10.956;2023-02-01T00:55:53;3.90;99.90
20155;DHT22;10238;49.556;10.956;2023-02-01T00:58:42;3.90;99.90
20155;DHT22;10238;49.556;10.956;2023-02-01T01:01:31;3.90;99.90
20155;DHT22;10238;49.556;10.956;2023-02-01T01:04:20;3.90;99.90
20155;DHT22;10238;49.556;10.956;2023-02-01T01:07:07;3.90;99.90
20155;DHT22;10238;49.556;10.956;2023-02-01T01:09:55;3.70;99.90
20155;DHT22;10238;49.556;10.956;2023-02-01T01:12:42;3.90;99.90
20155;DHT22;10238;49.556;10.956;2023-02-01T01:15:30;3.80;99.90
20155;DHT22;10238;49.556;10.956;2023-02-01T01:18:18;3.80;99.90
20155;DHT22;10238;49.556;10.956;2023-02-01T01:21:08;3.90;99.90
20155;DHT22;10238;49.556;10.956;2023-02-01T01:23:58;3.90;99.90
20155;DHT22;10238;49.556;10.956;2023-02-01T01:26:46;3.80;99.90
20155;DHT22;10238;49.556;10.956;2023-02-01T01:29:34;3.80;99.90
20155;DHT22;10238;49.556;10.956;2023-02-01T01:32:22;3.90;99.90
20155;DHT22;10238;49.556;10.956;2023-02-01T01:35:10;3.80;99.90
20155;DHT22;10238;49.556;10.956;2023-02-01T01:38:00;3.80;99.90
20155;DHT22;10238;49.556;10.956;2023-02-01T01:40:48;3.80;99.90
20155;DHT22;10238;49.556;10.956;2023-02-01T01:43:54;3.80;99.90
20155;DHT22;10238;49.556;10.956;2023-02-01T01:46:44;3.80;99.90
20155;DHT22;10238;49.556;10.956;2023-02-01T01:49:32;3.80;99.90
20155;DHT22;10238;49.556;10.956;2023-02-01T01:52:20;4.00;99.90
20155;DHT22;10238;49.556;10.956;2023-02-01T01:55:10;3.90;99.90
20155;DHT22;10238;49.556;10.956;2023-02-01T01:58:02;3.90;99.90
20155;DHT22;10238;49.556;10.956;2023-02-01T02:00:54;3.70;99.90
20155;DHT22;10238;49.556;10.956;2023-02-01T02:03:44;3.90;99.90
20155;DHT22;10238;49.556;10.956;2023-02-01T02:06:40;3.80;99.90
20155;DHT22;10238;49.556;10.956;2023-02-01T02:09:34;3.80;99.90
20155;DHT22;10238;49.556;10.956;2023-02-01T02:12:25;3.90;99.90
20155;DHT22;10238;49.556;10.956;2023-02-01T02:15:14;3.90;99.90
20155;DHT22;10238;49.556;10.956;2023-02-01T02:18:09;3.80;99.90
20155;DHT22;10238;49.556;10.956;2023-02-01T02:21:22;3.70;99.90
20155;DHT22;10238;49.556;10.956;2023-02-01T02:24:43;3.80;99.90
20155;DHT22;10238;49.556;10.956;2023-02-01T02:27:57;3.90;99.90
20155;DHT22;10238;49.556;10.956;2023-02-01T02:31:19;3.90;99.90
20155;DHT22;10238;49.556;10.956;2023-02-01T02:34:25;3.90;99.90
20155;DHT22;10238;49.556;10.956;2023-02-01T02:37:22;3.90;99.90
20155;DHT22;10238;49.556;10.956;2023-02-01T02:43:21;3.80;99.90
20155;DHT22;10238;49.556;10.956;2023-02-01T02:46:32;3.90;99.90
20155;DHT22;10238;49.556;10.956;2023-02-01T02:50:05;3.80;99.90
20155;DHT22;10238;49.556;10.956;2023-02-01T02:53:20;3.80;99.90
20155;DHT22;10238;49.556;10.956;2023-02-01T02:56:29;4.00;99.90
20155;DHT22;10238;49.556;10.956;2023-02-01T02:59:35;3.90;99.90
20155;DHT22;10238;49.556;10.956;2023-02-01T03:02:45;4.00;99.90
20155;DHT22;10238;49.556;10.956;2023-02-01T03:05:52;3.80;99.90
20155;DHT22;10238;49.556;10.956;2023-02-01T03:08:40;4.00;99.90
20155;DHT22;10238;49.556;10.956;2023-02-01T03:14:37;3.80;99.90
20155;DHT22;10238;49.556;10.956;2023-02-01T03:20:26;3.80;99.90
20155;DHT22;10238;49.556;10.956;2023-02-01T03:23:19;3.90;99.90
20155;DHT22;10238;49.556;10.956;2023-02-01T03:26:13;3.90;99.90
20155;DHT22;10238;49.556;10.956;2023-02-01T03:29:09;3.90;99.90
20155;DHT22;10238;49.556;10.956;2023-02-01T03:32:01;4.00;99.90
20155;DHT22;10238;49.556;10.956;2023-02-01T03:34:51;3.80;99.90
20155;DHT22;10238;49.556;10.956;2023-02-01T03:37:43;3.80;99.90
20155;DHT22;10238;49.556;10.956;2023-02-01T03:40:36;3.90;99.90
20155;DHT22;10238;49.556;10.956;2023-02-01T03:46:21;3.80;99.90
20155;DHT22;10238;49.556;10.956;2023-02-01T03:52:17;3.80;99.90
20155;DHT22;10238;49.556;10.956;2023-02-01T03:55:10;3.80;99.90
20155;DHT22;10238;49.556;10.956;2023-02-01T03:58:06;3.90;99.90
20155;DHT22;10238;49.556;10.956;2023-02-01T04:01:00;3.90;99.90
20155;DHT22;10238;49.556;10.956;2023-02-01T04:03:48;4.00;99.90
20155;DHT22;10238;49.556;10.956;2023-02-01T04:20:47;3.90;99.90
20155;DHT22;10238;49.556;10.956;2023-02-01T04:23:36;3.90;99.90
20155;DHT22;10238;49.556;10.956;2023-02-01T04:40:28;3.80;99.90
20155;DHT22;10238;49.556;10.956;2023-02-01T04:43:16;3.90;99.90
20155;DHT22;10238;49.556;10.956;2023-02-01T04:46:04;3.90;99.90
20155;DHT22;10238;49.556;10.956;2023-02-01T04:51:43;3.60;99.90
20155;DHT22;10238;49.556;10.956;2023-02-01T04:54:31;4.00;99.90
20155;DHT22;10238;49.556;10.956;2023-02-01T04:57:18;3.80;99.90
20155;DHT22;10238;49.556;10.956;2023-02-01T05:00:07;3.80;99.90
20155;DHT22;10238;49.556;10.956;2023-02-01T05:02:56;3.80;99.90
20155;DHT22;10238;49.556;10.956;2023-02-01T05:08:34;3.80;99.90
20155;DHT22;10238;49.556;10.956;2023-02-01T05:11:23;3.80;99.90
20155;DHT22;10238;49.556;10.956;2023-02-01T05:17:17;3.70;99.90
20155;DHT22;10238;49.556;10.956;2023-02-01T05:20:05;3.90;99.90
20155;DHT22;10238;49.556;10.956;2023-02-01T05:25:43;3.70;99.90
20155;DHT22;10238;49.556;10.956;2023-02-01T05:36:58;3.70;99.90
20155;DHT22;10238;49.556;10.956;2023-02-01T05:39:48;3.70;99.90
20155;DHT22;10238;49.556;10.956;2023-02-01T05:42:35;3.70;99.90
20155;DHT22;10238;49.556;10.956;2023-02-01T05:51:01;3.50;99.90
20155;DHT22;10238;49.556;10.956;2023-02-01T05:53:48;3.60;99.90
20155;DHT22;10238;49.556;10.956;2023-02-01T05:56:37;3.60;99.90
20155;DHT22;10238;49.556;10.956;2023-02-01T05:59:26;3.60;99.90
20155;DHT22;10238;49.556;10.956;2023-02-01T06:02:14;3.60;99.90
20155;DHT22;10238;49.556;10.956;2023-02-01T06:05:02;3.70;99.90
20155;DHT22;10238;49.556;10.956;2023-02-01T06:07:50;3.60;99.90
20155;DHT22;10238;49.556;10.956;2023-02-01T06:10:38;3.60;99.90
20155;DHT22;10238;49.556;10.956;2023-02-01T06:13:28;3.50;99.90
20155;DHT22;10238;49.556;10.956;2023-02-01T06:16:19;3.60;99.90
20155;DHT22;10238;49.556;10.956;2023-02-01T06:19:06;3.50;99.90
20155;DHT22;10238;49.556;10.956;2023-02-01T06:21:54;3.50;99.90
20155;DHT22;10238;49.556;10.956;2023-02-01T06:24:43;3.50;99.90
20155;DHT22;10238;49.556;10.956;2023-02-01T06:27:30;3.50;99.90
20155;DHT22;10238;49.556;10.956;2023-02-01T06:33:08;3.40;99.90
20155;DHT22;10238;49.556;10.956;2023-02-01T06:38:50;3.30;99.90
20155;DHT22;10238;49.556;10.956;2023-02-01T06:41:38;3.40;99.90
20155;DHT22;10238;49.556;10.956;2023-02-01T06:44:28;3.40;99.90
20155;DHT22;10238;49.556;10.956;2023-02-01T06:47:44;3.40;99.90
20155;DHT22;10238;49.556;10.956;2023-02-01T06:50:32;3.70;99.90
20155;DHT22;10238;49.556;10.956;2023-02-01T06:53:21;3.40;99.90
20155;DHT22;10238;49.556;10.956;2023-02-01T06:56:10;3.40;99.90
20155;DHT22;10238;49.556;10.956;2023-02-01T07:01:54;3.40;99.90
20155;DHT22;10238;49.556;10.956;2023-02-01T07:04:47;3.40;99.90
20155;DHT22;10238;49.556;10.956;2023-02-01T07:07:36;3.30;99.90
20155;DHT22;10238;49.556;10.956;2023-02-01T07:41:45;3.20;99.90
20155;DHT22;10238;49.556;10.956;2023-02-01T07:47:22;3.40;99.90
20155;DHT22;10238;49.556;10.956;2023-02-01T08:09:57;3.50;99.90
20155;DHT22;10238;49.556;10.956;2023-02-01T08:18:28;3.70;99.90
20155;DHT22;10238;49.556;10.956;2023-02-01T08:26:58;3.80;99.90
20155;DHT22;10238;49.556;10.956;2023-02-01T08:29:48;3.90;99.90
20155;DHT22;10238;49.556;10.956;2023-02-01T08:38:28;4.00;99.90
20155;DHT22;10238;49.556;10.956;2023-02-01T08:41:18;4.20;99.90
20155;DHT22;10238;49.556;10.956;2023-02-01T08:44:06;4.20;99.90
20155;DHT22;10238;49.556;10.956;2023-02-01T08:46:55;4.10;99.90
20155;DHT22;10238;49.556;10.956;2023-02-01T08:49:43;4.20;99.90
20155;DHT22;10238;49.556;10.956;2023-02-01T08:52:31;4.20;99.90
20155;DHT22;10238;49.556;10.956;2023-02-01T08:58:13;4.20;99.90
20155;DHT22;10238;49.556;10.956;2023-02-01T09:01:03;4.30;99.90
20155;DHT22;10238;49.556;10.956;2023-02-01T09:03:55;4.30;99.90
20155;DHT22;10238;49.556;10.956;2023-02-01T09:12:24;4.40;99.90
20155;DHT22;10238;49.556;10.956;2023-02-01T09:18:00;4.40;99.90
20155;DHT22;10238;49.556;10.956;2023-02-01T09:20:49;4.60;99.90
20155;DHT22;10238;49.556;10.956;2023-02-01T09:26:26;4.50;99.90
20155;DHT22;10238;49.556;10.956;2023-02-01T09:32:07;4.50;99.90
20155;DHT22;10238;49.556;10.956;2023-02-01T09:34:55;4.60;99.90
20155;DHT22;10238;49.556;10.956;2023-02-01T09:40:34;4.50;99.90
20155;DHT22;10238;49.556;10.956;2023-02-01T09:43:34;4.70;99.90
20155;DHT22;10238;49.556;10.956;2023-02-01T09:46:31;4.80;99.90
20155;DHT22;10238;49.556;10.956;2023-02-01T09:49:23;4.90;99.90
20155;DHT22;10238;49.556;10.956;2023-02-01T09:52:15;4.90;99.90
20155;DHT22;10238;49.556;10.956;2023-02-01T09:55:18;4.90;99.90
20155;DHT22;10238;49.556;10.956;2023-02-01T10:01:19;5.00;99.90
20155;DHT22;10238;49.556;10.956;2023-02-01T10:07:12;5.10;99.90
20155;DHT22;10238;49.556;10.956;2023-02-01T10:10:17;5.20;99.90
20155;DHT22;10238;49.556;10.956;2023-02-01T10:13:25;5.20;99.90
20155;DHT22;10238;49.556;10.956;2023-02-01T10:16:33;5.30;99.90
20155;DHT22;10238;49.556;10.956;2023-02-01T10:25:53;5.20;99.90
20155;DHT22;10238;49.556;10.956;2023-02-01T10:28:43;5.50;99.90
20155;DHT22;10238;49.556;10.956;2023-02-01T10:31:37;5.40;99.90
20155;DHT22;10238;49.556;10.956;2023-02-01T10:34:27;5.30;99.90
20155;DHT22;10238;49.556;10.956;2023-02-01T10:37:24;5.30;99.90
20155;DHT22;10238;49.556;10.956;2023-02-01T10:40:17;5.20;99.90
20155;DHT22;10238;49.556;10.956;2023-02-01T10:45:59;5.10;99.90
20155;DHT22;10238;49.556;10.956;2023-02-01T10:48:48;5.20;99.90
20155;DHT22;10238;49.556;10.956;2023-02-01T10:51:42;5.10;99.90
20155;DHT22;10238;49.556;10.956;2023-02-01T10:54:36;5.20;99.90
20155;DHT22;10238;49.556;10.956;2023-02-01T10:57:26;5.20;99.90
20155;DHT22;10238;49.556;10.956;2023-02-01T11:00:21;5.20;99.90
20155;DHT22;10238;49.556;10.956;2023-02-01T11:03:36;5.20;99.90
20155;DHT22;10238;49.556;10.956;2023-02-01T11:18:16;5.20;99.90
20155;DHT22;10238;49.556;10.956;2023-02-01T11:23:55;5.10;99.90
20155;DHT22;10238;49.556;10.956;2023-02-01T11:26:48;5.30;99.90
20155;DHT22;10238;49.556;10.956;2023-02-01T11:29:41;5.10;99.90
20155;DHT22;10238;49.556;10.956;2023-02-01T11:32:33;5.10;99.90
20155;DHT22;10238;49.556;10.956;2023-02-01T11:35:20;5.20;99.90
20155;DHT22;10238;49.556;10.956;2023-02-01T11:38:21;5.20;99.90
20155;DHT22;10238;49.556;10.956;2023-02-01T11:41:14;5.20;99.90
20155;DHT22;10238;49.556;10.956;2023-02-01T11:44:20;5.20;99.90
20155;DHT22;10238;49.556;10.956;2023-02-01T11:47:23;5.30;99.90
20155;DHT22;10238;49.556;10.956;2023-02-01T11:50:17;5.30;99.90
20155;DHT22;10238;49.556;10.956;2023-02-01T11:59:24;5.40;99.90
20155;DHT22;10238;49.556;10.956;2023-02-01T12:02:48;5.60;99.90
20155;DHT22;10238;49.556;10.956;2023-02-01T12:05:57;5.70;99.90
20155;DHT22;10238;49.556;10.956;2023-02-01T12:09:01;5.50;99.90
20155;DHT22;10238;49.556;10.956;2023-02-01T12:12:05;5.50;99.90
20155;DHT22;10238;49.556;10.956;2023-02-01T12:15:22;5.60;99.90
20155;DHT22;10238;49.556;10.956;2023-02-01T12:18:51;5.70;99.90
20155;DHT22;10238;49.556;10.956;2023-02-01T12:22:06;5.70;99.90
20155;DHT22;10238;49.556;10.956;2023-02-01T12:28:34;5.70;99.90
20155;DHT22;10238;49.556;10.956;2023-02-01T12:38:21;5.70;99.90
20155;DHT22;10238;49.556;10.956;2023-02-01T12:44:42;5.60;99.90
20155;DHT22;10238;49.556;10.956;2023-02-01T12:50:31;5.30;99.90
20155;DHT22;10238;49.556;10.956;2023-02-01T12:56:38;5.20;99.90
20155;DHT22;10238;49.556;10.956;2023-02-01T12:59:35;5.30;99.90
20155;DHT22;10238;49.556;10.956;2023-02-01T13:02:30;5.20;99.90
20155;DHT22;10238;49.556;10.956;2023-02-01T13:05:29;5.20;99.90
20155;DHT22;10238;49.556;10.956;2023-02-01T13:11:24;5.10;99.90
20155;DHT22;10238;49.556;10.956;2023-02-01T13:14:22;5.20;99.90
20155;DHT22;10238;49.556;10.956;2023-02-01T13:20:17;5.10;99.90
20155;DHT22;10238;49.556;10.956;2023-02-01T13:23:14;5.10;99.90
20155;DHT22;10238;49.556;10.956;2023-02-01T13:26:11;5.10;99.90
20155;DHT22;10238;49.556;10.956;2023-02-01T13:29:03;5.10;99.90
20155;DHT22;10238;49.556;10.956;2023-02-01T13:32:22;5.10;99.90
20155;DHT22;10238;49.556;10.956;2023-02-01T13:39:48;5.10;99.90
20155;DHT22;10238;49.556;10.956;2023-02-01T13:42:49;5.10;99.90
20155;DHT22;10238;49.556;10.956;2023-02-01T13:45:47;5.10;99.90
20155;DHT22;10238;49.556;10.956;2023-02-01T13:48:40;5.20;99.90
20155;DHT22;10238;49.556;10.956;2023-02-01T13:51:36;5.20;99.90
20155;DHT22;10238;49.556;10.956;2023-02-01T13:54:30;5.20;99.90
20155;DHT22;10238;49.556;10.956;2023-02-01T14:00:26;5.20;99.90
20155;DHT22;10238;49.556;10.956;2023-02-01T14:03:20;5.30;99.90
20155;DHT22;10238;49.556;10.956;2023-02-01T14:06:34;5.30;99.90
20155;DHT22;10238;49.556;10.956;2023-02-01T14:09:34;5.30;99.90
20155;DHT22;10238;49.556;10.956;2023-02-01T14:12:46;5.40;99.90
20155;DHT22;10238;49.556;10.956;2023-02-01T14:18:58;5.20;99.90
20155;DHT22;10238;49.556;10.956;2023-02-01T14:21:48;5.30;99.90
20155;DHT22;10238;49.556;10.956;2023-02-01T14:24:41;5.30;99.90
20155;DHT22;10238;49.556;10.956;2023-02-01T14:27:38;5.30;99.90
20155;DHT22;10238;49.556;10.956;2023-02-01T14:30:26;5.40;99.90
20155;DHT22;10238;49.556;10.956;2023-02-01T14:33:20;5.30;99.90
20155;DHT22;10238;49.556;10.956;2023-02-01T14:36:12;5.30;99.90
20155;DHT22;10238;49.556;10.956;2023-02-01T14:39:01;5.30;99.90
20155;DHT22;10238;49.556;10.956;2023-02-01T14:41:54;5.20;99.90
20155;DHT22;10238;49.556;10.956;2023-02-01T14:44:48;5.20;99.90
20155;DHT22;10238;49.556;10.956;2023-02-01T14:47:46;5.20;99.90
20155;DHT22;10238;49.556;10.956;2023-02-01T14:50:37;5.30;99.90
20155;DHT22;10238;49.556;10.956;2023-02-01T14:53:31;5.10;99.90
20155;DHT22;10238;49.556;10.956;2023-02-01T14:56:21;5.20;99.90
20155;DHT22;10238;49.556;10.956;2023-02-01T14:59:14;5.20;99.90
20155;DHT22;10238;49.556;10.956;2023-02-01T15:02:18;5.10;99.90
20155;DHT22;10238;49.556;10.956;2023-02-01T15:05:24;5.20;99.90
20155;DHT22;10238;49.556;10.956;2023-02-01T15:08:21;5.00;99.90
20155;DHT22;10238;49.556;10.956;2023-02-01T15:11:16;5.10;99.90
20155;DHT22;10238;49.556;10.956;2023-02-01T15:14:14;5.10;99.90
20155;DHT22;10238;49.556;10.956;2023-02-01T15:17:02;5.20;99.90
20155;DHT22;10238;49.556;10.956;2023-02-01T15:19:54;5.00;99.90
20155;DHT22;10238;49.556;10.956;2023-02-01T15:22:53;5.00;99.90
20155;DHT22;10238;49.556;10.956;2023-02-01T15:25:45;5.10;99.90
20155;DHT22;10238;49.556;10.956;2023-02-01T15:28:35;5.10;99.90
20155;DHT22;10238;49.556;10.956;2023-02-01T15:31:34;5.00;99.90
20155;DHT22;10238;49.556;10.956;2023-02-01T15:34:44;5.10;99.90
20155;DHT22;10238;49.556;10.956;2023-02-01T15:37:35;5.00;99.90
20155;DHT22;10238;49.556;10.956;2023-02-01T15:40:30;5.00;99.90
20155;DHT22;10238;49.556;10.956;2023-02-01T15:43:18;5.00;99.90
20155;DHT22;10238;49.556;10.956;2023-02-01T15:46:13;5.30;99.90
20155;DHT22;10238;49.556;10.956;2023-02-01T15:49:05;5.10;99.90
20155;DHT22;10238;49.556;10.956;2023-02-01T15:52:19;5.00;99.90
20155;DHT22;10238;49.556;10.956;2023-02-01T15:55:19;5.10;99.90
20155;DHT22;10238;49.556;10.956;2023-02-01T15:58:16;4.90;99.90
20155;DHT22;10238;49.556;10.956;2023-02-01T16:01:12;5.00;99.90
20155;DHT22;10238;49.556;10.956;2023-02-01T16:04:04;5.00;99.90
20155;DHT22;10238;49.556;10.956;2023-02-01T16:07:25;4.90;99.90
20155;DHT22;10238;49.556;10.956;2023-02-01T16:10:25;4.90;99.90
20155;DHT22;10238;49.556;10.956;2023-02-01T16:16:08;4.80;99.90
20155;DHT22;10238;49.556;10.956;2023-02-01T16:19:01;5.00;99.90
20155;DHT22;10238;49.556;10.956;2023-02-01T16:21:49;4.90;99.90
20155;DHT22;10238;49.556;10.956;2023-02-01T16:24:37;4.90;99.90
20155;DHT22;10238;49.556;10.956;2023-02-01T16:27:25;5.40;99.90
20155;DHT22;10238;49.556;10.956;2023-02-01T16:30:17;4.80;99.90
20155;DHT22;10238;49.556;10.956;2023-02-01T16:33:13;4.80;99.90
20155;DHT22;10238;49.556;10.956;2023-02-01T16:36:09;4.90;99.90
20155;DHT22;10238;49.556;10.956;2023-02-01T16:38:59;4.90;99.90
20155;DHT22;10238;49.556;10.956;2023-02-01T16:41:49;4.80;99.90
20155;DHT22;10238;49.556;10.956;2023-02-01T16:44:37;4.70;99.90
20155;DHT22;10238;49.556;10.956;2023-02-01T16:47:25;4.90;99.90
20155;DHT22;10238;49.556;10.956;2023-02-01T16:50:16;4.70;99.90
20155;DHT22;10238;49.556;10.956;2023-02-01T16:53:11;4.80;99.90
20155;DHT22;10238;49.556;10.956;2023-02-01T16:56:01;5.00;99.90
20155;DHT22;10238;49.556;10.956;2023-02-01T16:58:52;4.70;99.90
20155;DHT22;10238;49.556;10.956;2023-02-01T17:01:40;4.70;99.90
20155;DHT22;10238;49.556;10.956;2023-02-01T17:04:28;4.70;99.90
20155;DHT22;10238;49.556;10.956;2023-02-01T17:07:17;4.70;99.90
20155;DHT22;10238;49.556;10.956;2023-02-01T17:10:20;4.70;99.90
20155;DHT22;10238;49.556;10.956;2023-02-01T17:13:19;4.80;99.90
20155;DHT22;10238;49.556;10.956;2023-02-01T17:16:21;4.80;99.90
20155;DHT22;10238;49.556;10.956;2023-02-01T17:22:03;4.70;99.90
20155;DHT22;10238;49.556;10.956;2023-02-01T17:27:40;4.70;99.90
20155;DHT22;10238;49.556;10.956;2023-02-01T17:30:31;4.90;99.90
20155;DHT22;10238;49.556;10.956;2023-02-01T17:36:13;4.80;99.90
20155;DHT22;10238;49.556;10.956;2023-02-01T17:39:02;5.00;99.90
20155;DHT22;10238;49.556;10.956;2023-02-01T17:41:51;4.80;99.90
20155;DHT22;10238;49.556;10.956;2023-02-01T17:44:40;4.90;99.90
20155;DHT22;10238;49.556;10.956;2023-02-01T17:47:28;5.00;99.90
20155;DHT22;10238;49.556;10.956;2023-02-01T17:50:15;4.80;99.90
20155;DHT22;10238;49.556;10.956;2023-02-01T17:53:04;4.90;99.90
20155;DHT22;10238;49.556;10.956;2023-02-01T17:55:56;4.90;99.90
20155;DHT22;10238;49.556;10.956;2023-02-01T17:58:44;4.80;99.90
20155;DHT22;10238;49.556;10.956;2023-02-01T18:01:34;4.70;99.90
20155;DHT22;10238;49.556;10.956;2023-02-01T18:04:23;4.70;99.90
20155;DHT22;10238;49.556;10.956;2023-02-01T18:07:10;4.70;99.90
20155;DHT22;10238;49.556;10.956;2023-02-01T18:09:58;4.70;99.90
20155;DHT22;10238;49.556;10.956;2023-02-01T18:12:47;4.60;99.90
20155;DHT22;10238;49.556;10.956;2023-02-01T18:15:35;4.70;99.90
20155;DHT22;10238;49.556;10.956;2023-02-01T18:18:23;4.70;99.90
20155;DHT22;10238;49.556;10.956;2023-02-01T18:21:12;4.70;99.90
20155;DHT22;10238;49.556;10.956;2023-02-01T18:24:00;4.70;99.90
20155;DHT22;10238;49.556;10.956;2023-02-01T18:26:48;4.60;99.90
20155;DHT22;10238;49.556;10.956;2023-02-01T18:29:37;4.60;99.90
20155;DHT22;10238;49.556;10.956;2023-02-01T18:32:28;4.60;99.90
20155;DHT22;10238;49.556;10.956;2023-02-01T18:35:19;4.60;99.90
20155;DHT22;10238;49.556;10.956;2023-02-01T18:38:11;4.60;99.90
20155;DHT22;10238;49.556;10.956;2023-02-01T18:41:03;4.60;99.90
20155;DHT22;10238;49.556;10.956;2023-02-01T18:43:56;4.80;99.90
20155;DHT22;10238;49.556;10.956;2023-02-01T18:47:04;4.70;99.90
20155;DHT22;10238;49.556;10.956;2023-02-01T18:50:02;4.60;99.90
20155;DHT22;10238;49.556;10.956;2023-02-01T18:53:16;4.60;99.90
20155;DHT22;10238;49.556;10.956;2023-02-01T18:56:22;4.60;99.90
20155;DHT22;10238;49.556;10.956;2023-02-01T18:59:26;4.50;99.90
20155;DHT22;10238;49.556;10.956;2023-02-01T19:02:30;4.80;99.90
20155;DHT22;10238;49.556;10.956;2023-02-01T19:05:30;4.60;99.90
20155;DHT22;10238;49.556;10.956;2023-02-01T19:08:35;4.60;99.90
20155;DHT22;10238;49.556;10.956;2023-02-01T19:11:34;4.70;99.90
20155;DHT22;10238;49.556;10.956;2023-02-01T19:14:39;4.60;99.90
20155;DHT22;10238;49.556;10.956;2023-02-01T19:17:30;4.90;99.90
20155;DHT22;10238;49.556;10.956;2023-02-01T19:20:23;4.70;99.90
20155;DHT22;10238;49.556;10.956;2023-02-01T19:23:17;4.70;99.90
20155;DHT22;10238;49.556;10.956;2023-02-01T19:29:08;4.40;99.90
20155;DHT22;10238;49.556;10.956;2023-02-01T19:32:04;4.50;99.90
20155;DHT22;10238;49.556;10.956;2023-02-01T19:35:02;5.30;99.90
20155;DHT22;10238;49.556;10.956;2023-02-01T19:37:56;4.50;99.90
20155;DHT22;10238;49.556;10.956;2023-02-01T19:41:00;4.50;99.90
20155;DHT22;10238;49.556;10.956;2023-02-01T19:44:26;4.60;99.90
20155;DHT22;10238;49.556;10.956;2023-02-01T19:47:15;4.40;99.90
20155;DHT22;10238;49.556;10.956;2023-02-01T19:50:18;4.90;99.90
20155;DHT22;10238;49.556;10.956;2023-02-01T19:53:13;4.50;99.90
20155;DHT22;10238;49.556;10.956;2023-02-01T19:56:10;4.50;99.90
20155;DHT22;10238;49.556;10.956;2023-02-01T19:59:06;4.60;99.90
20155;DHT22;10238;49.556;10.956;2023-02-01T20:02:18;4.60;99.90
20155;DHT22;10238;49.556;10.956;2023-02-01T20:05:17;4.30;99.90
20155;DHT22;10238;49.556;10.956;2023-02-01T20:08:21;4.60;99.90
20155;DHT22;10238;49.556;10.956;2023-02-01T20:11:25;4.60;99.90
20155;DHT22;10238;49.556;10.956;2023-02-01T20:14:28;4.50;99.90
20155;DHT22;10238;49.556;10.956;2023-02-01T20:17:45;4.50;99.90
20155;DHT22;10238;49.556;10.956;2023-02-01T20:20:36;4.50;99.90
20155;DHT22;10238;49.556;10.956;2023-02-01T20:23:27;4.50;99.90
20155;DHT22;10238;49.556;10.956;2023-02-01T20:26:20;4.40;99.90
20155;DHT22;10238;49.556;10.956;2023-02-01T20:29:16;4.50;99.90
20155;DHT22;10238;49.556;10.956;2023-02-01T20:32:13;4.40;99.90
20155;DHT22;10238;49.556;10.956;2023-02-01T20:35:03;4.50;99.90
20155;DHT22;10238;49.556;10.956;2023-02-01T20:38:00;4.40;99.90
20155;DHT22;10238;49.556;10.956;2023-02-01T20:40:51;4.50;99.90
20155;DHT22;10238;49.556;10.956;2023-02-01T20:43:41;4.30;99.90
20155;DHT22;10238;49.556;10.956;2023-02-01T20:46:31;4.40;99.90
20155;DHT22;10238;49.556;10.956;2023-02-01T20:49:21;4.20;99.90
20155;DHT22;10238;49.556;10.956;2023-02-01T20:52:11;4.30;99.90
20155;DHT22;10238;49.556;10.956;2023-02-01T20:55:04;4.30;99.90
20155;DHT22;10238;49.556;10.956;2023-02-01T20:58:09;4.30;99.90
20155;DHT22;10238;49.556;10.956;2023-02-01T21:01:01;4.10;99.90
20155;DHT22;10238;49.556;10.956;2023-02-01T21:03:52;4.30;99.90
20155;DHT22;10238;49.556;10.956;2023-02-01T21:06:40;4.30;99.90
20155;DHT22;10238;49.556;10.956;2023-02-01T21:09:29;4.40;99.90
20155;DHT22;10238;49.556;10.956;2023-02-01T21:12:17;4.30;99.90
20155;DHT22;10238;49.556;10.956;2023-02-01T21:15:05;4.30;99.90
20155;DHT22;10238;49.556;10.956;2023-02-01T21:17:54;4.30;99.90
20155;DHT22;10238;49.556;10.956;2023-02-01T21:20:41;4.30;99.90
20155;DHT22;10238;49.556;10.956;2023-02-01T21:23:31;4.30;99.90
20155;DHT22;10238;49.556;10.956;2023-02-01T21:26:31;4.20;99.90
20155;DHT22;10238;49.556;10.956;2023-02-01T21:29:28;4.30;99.90
20155;DHT22;10238;49.556;10.956;2023-02-01T21:32:16;4.30;99.90
20155;DHT22;10238;49.556;10.956;2023-02-01T21:35:04;4.30;99.90
20155;DHT22;10238;49.556;10.956;2023-02-01T21:37:53;4.30;99.90
20155;DHT22;10238;49.556;10.956;2023-02-01T21:40:41;4.00;99.90
20155;DHT22;10238;49.556;10.956;2023-02-01T21:43:30;4.40;99.90
20155;DHT22;10238;49.556;10.956;2023-02-01T21:46:17;4.20;99.90
20155;DHT22;10238;49.556;10.956;2023-02-01T21:49:08;4.00;99.90
20155;DHT22;10238;49.556;10.956;2023-02-01T21:51:56;4.30;99.90
20155;DHT22;10238;49.556;10.956;2023-02-01T21:54:43;4.20;99.90
20155;DHT22;10238;49.556;10.956;2023-02-01T21:57:32;4.20;99.90
20155;DHT22;10238;49.556;10.956;2023-02-01T22:00:21;4.20;99.90
20155;DHT22;10238;49.556;10.956;2023-02-01T22:03:09;4.10;99.90
20155;DHT22;10238;49.556;10.956;2023-02-01T22:05:57;4.20;99.90
20155;DHT22;10238;49.556;10.956;2023-02-01T22:08:45;3.90;99.90
20155;DHT22;10238;49.556;10.956;2023-02-01T22:11:32;4.10;99.90
20155;DHT22;10238;49.556;10.956;2023-02-01T22:14:21;4.10;99.90
20155;DHT22;10238;49.556;10.956;2023-02-01T22:17:12;4.20;99.90
20155;DHT22;10238;49.556;10.956;2023-02-01T22:20:00;4.20;99.90
20155;DHT22;10238;49.556;10.956;2023-02-01T22:22:47;4.10;99.90
20155;DHT22;10238;49.556;10.956;2023-02-01T22:25:35;4.10;99.90
20155;DHT22;10238;49.556;10.956;2023-02-01T22:28:23;4.10;99.90
20155;DHT22;10238;49.556;10.956;2023-02-01T22:31:19;4.20;99.90
20155;DHT22;10238;49.556;10.956;2023-02-01T22:34:10;4.30;99.90